• Join FlightAware (Why Join?)
  • Login
  • US Flag 
06:22PM EDT


 

Airport Tracker/Info


-or-


 

Live Flight TrackerFlight Track Log ✈ N960DL ✈ 25-Apr-2013 ✈ KATL - KPWM

Flight Track Log - Related Links

Times and Time Zones

All times are in EDT time to prevent confusion due to time zone crossing. See the N960DL flight status page for this flight to view local times or setup timezone preferences in your user account.

Time Position Orientation Groundspeed Altitude Reporting Facility
EDT Latitude Longitude Course Direction KTS MPH feet Rate Location/Type
12:45PM 33.6500 -84.4667 North 162 186 2,300  Level Atlanta TRACON
12:45PM 33.6667 -84.5167 292° West 240 276 3,900 2,400 Climbing Atlanta TRACON
12:46PM 33.7167 -84.5833 312° West 266 306 6,900 2,580 Climbing Atlanta TRACON
12:48PM 33.9771 -84.2667 North  Level FlightAware Approximate
12:48PM 33.8000 -84.5833 360° North 292 336 9,400  Level Atlanta TRACON
12:49PM 34.1116 -84.2667 North  Level FlightAware Approximate
12:49PM 33.9083 -84.4417 47° Northeast 347 399 11,600  Level Atlanta Center
12:50PM 34.2460 -84.2667 North  Level FlightAware Approximate
12:50PM 34.0047 -84.3819 27° Northeast 379 436 13,800  Level Atlanta Center
12:51PM 34.0986 -84.3475 17° North 374 430 15,700 2,100 Climbing Atlanta Center
12:52PM 34.2281 -84.3050 15° North 425 489 18,000 1,800 Climbing Atlanta Center
12:53PM 34.3347 -84.2728 14° North 431 496 19,300 1,560 Climbing Atlanta Center
12:54PM 34.4600 -84.2428 11° North 449 517 21,200 1,860 Climbing Atlanta Center
12:55PM 34.5831 -84.2128 11° North 449 517 23,100 1,800 Climbing Atlanta Center
12:56PM 34.7208 -84.1828 10° North 449 517 24,800 1,980 Climbing Atlanta Center
12:57PM 34.8461 -84.1528 11° North 449 517 27,100 1,860 Climbing Atlanta Center
12:58PM 34.9733 -84.1250 10° North 449 517 28,600 1,500 Climbing Atlanta Center
12:59PM 35.0861 -84.0972 11° North 449 517 30,100 1,380 Climbing Atlanta Center
01:00PM 35.2072 -84.0667 12° North 449 517 31,400 1,080 Climbing Atlanta Center
01:01PM 35.3281 -84.0389 11° North 449 517 32,300 780 Climbing Atlanta Center
01:02PM 35.4492 -84.0081 12° North 449 517 33,000 300 Climbing Atlanta Center
01:03PM 35.5742 -83.9775 11° North 449 517 33,000  Level Atlanta Center
01:04PM 35.6994 -83.9467 11° North 449 517 33,000  Level Atlanta Center
01:05PM 35.8247 -83.9158 11° North 449 517 33,000  Level Atlanta Center
01:06PM 35.9497 -83.8669 18° North 454 522 33,000  Level Atlanta Center
01:07PM 36.0706 -83.7894 27° Northeast 463 533 33,000  Level Atlanta Center
01:09PM 36.3128 -83.6325 28° Northeast 491 565 33,000  Level Indianapolis Center
01:10PM 36.4328 -83.5556 27° Northeast 487 560 33,000  Level Indianapolis Center
01:11PM 36.5569 -83.4781 27° Northeast 497 572 33,000  Level Indianapolis Center
01:12PM 36.6742 -83.3897 31° Northeast 495 570 33,000  Level Indianapolis Center
01:13PM 36.7889 -83.2817 37° Northeast 510 587 33,000  Level Indianapolis Center
01:14PM 36.9244 -83.1556 37° Northeast 516 594 33,000  Level Indianapolis Center
01:15PM 37.0425 -83.0453 37° Northeast 519 597 33,000  Level Indianapolis Center
01:16PM 37.1600 -82.9342 37° Northeast 519 597 33,000  Level Indianapolis Center
01:17PM 37.2800 -82.8386 32° Northeast 505 581 33,000  Level Indianapolis Center
01:18PM 37.4022 -82.7539 29° Northeast 500 575 33,000  Level Indianapolis Center
01:19PM 37.5200 -82.6617 32° Northeast 497 572 33,000  Level Indianapolis Center
01:20PM 37.6381 -82.5675 32° Northeast 498 573 33,000  Level Indianapolis Center
01:22PM 37.7564 -82.4756 32° Northeast 496 571 33,000  Level Indianapolis Center
01:23PM 37.8939 -82.3717 31° Northeast 490 564 33,000  Level Indianapolis Center
01:24PM 37.9992 -82.2550 41° Northeast 504 580 33,000  Level Indianapolis Center
01:25PM 38.0825 -82.1367 48° Northeast 503 579 33,000  Level Indianapolis Center
01:26PM 38.1997 -81.9783 47° Northeast 508 585 33,000  Level Indianapolis Center
01:27PM 38.2958 -81.8456 47° Northeast 510 587 33,000  Level Indianapolis Center
01:28PM 38.3919 -81.7119 47° Northeast 512 589 33,000  Level Indianapolis Center
01:29PM 38.4850 -81.5769 49° Northeast 512 589 33,000  Level Indianapolis Center
01:30PM 38.5778 -81.4425 49° Northeast 512 589 33,000  Level Indianapolis Center
01:31PM 38.6889 -81.2847 48° Northeast 509 586 33,000  Level Indianapolis Center
01:32PM 38.7828 -81.1492 48° Northeast 512 589 33,000  Level Indianapolis Center
01:33PM 38.8783 -81.0136 48° Northeast 514 592 33,000  Level Indianapolis Center
01:34PM 38.9767 -80.8772 47° Northeast 520 598 33,000  Level Indianapolis Center
01:35PM 39.0731 -80.7394 48° Northeast 518 596 33,000  Level Indianapolis Center
01:36PM 39.1689 -80.6014 48° Northeast 517 595 33,000  Level Indianapolis Center
01:37PM 39.2847 -80.4350 48° Northeast 518 596 33,000  Level Indianapolis Center
01:38PM 39.3803 -80.2975 48° Northeast 515 593 33,000  Level Indianapolis Center
01:39PM 39.4536 -80.1958 47° Northeast 514 592 33,000  Level Cleveland Center
01:40PM 39.5469 -80.0608 48° Northeast 514 592 33,000  Level Cleveland Center
01:41PM 39.6400 -79.9225 49° Northeast 514 592 33,000  Level Cleveland Center
01:42PM 39.7247 -79.7978 49° Northeast 514 592 33,000 180 Level Cleveland Center
01:43PM 39.8194 -79.6586 48° Northeast 514 592 33,400 600 Climbing Cleveland Center
01:44PM 39.9164 -79.5194 48° Northeast 514 592 34,200 600 Climbing Cleveland Center
01:45PM 40.0067 -79.3797 50° Northeast 514 592 34,600 300 Climbing Cleveland Center
01:46PM 40.0989 -79.2397 49° Northeast 514 592 34,900 180 Climbing Cleveland Center
01:47PM 40.1931 -79.0964 49° Northeast 514 592 35,000  Climbing Cleveland Center
01:48PM 40.2911 -78.9553 48° Northeast 514 592 35,000  Level Cleveland Center
01:49PM 40.3950 -78.7947 50° Northeast 521 600 35,000  Level Cleveland Center
01:50PM 40.4886 -78.6531 49° Northeast 521 600 35,000  Level Cleveland Center
01:51PM 40.5861 -78.5081 48° Northeast 516 594 35,000  Level Cleveland Center
01:52PM 40.7383 -78.2736 49° Northeast 587 676 35,000  Level New York Center
01:53PM 40.8328 -78.1275 49° Northeast 545 627 35,000  Level New York Center
01:54PM 40.9253 -77.9781 51° Northeast 524 603 35,000  Level New York Center
01:55PM 41.0000 -77.8125 59° Northeast 519 597 35,000  Level New York Center
01:56PM 41.0764 -77.6444 59° Northeast 514 592 35,000  Level New York Center
01:57PM 41.1486 -77.4753 60° Northeast 519 597 35,000  Level New York Center
01:58PM 41.2225 -77.3086 59° Northeast 524 603 35,000  Level New York Center
01:59PM 41.2942 -77.1417 60° Northeast 524 603 35,000  Level New York Center
02:00PM 41.3700 -76.9719 59° Northeast 524 603 35,000  Level New York Center
02:01PM 41.4433 -76.8014 60° Northeast 529 609 35,000  Level New York Center
02:02PM 41.5164 -76.6306 60° Northeast 523 602 35,000  Level New York Center
02:05PM 41.6936 -76.2103 60° Northeast 530 610 35,000  Level Boston Center
02:06PM 41.7681 -76.0367 60° Northeast 530 610 35,000  Level Boston Center
02:07PM 41.8333 -75.8814 61° Northeast 530 610 35,000  Level Boston Center
02:08PM 41.9053 -75.7067 61° Northeast 525 604 35,000  Level Boston Center
02:09PM 41.9747 -75.5344 61° Northeast 525 604 35,000  Level Boston Center
02:10PM 42.0481 -75.3592 61° Northeast 525 604 35,000  Level Boston Center
02:11PM 42.1233 -75.1889 59° Northeast 525 604 35,000 -480 Level Boston Center
02:12PM 42.2047 -75.0075 59° Northeast 519 597 34,100 -1,020 Descending Boston Center
02:13PM 42.2833 -74.8422 57° Northeast 519 597 33,000 -600 Descending Boston Center
02:14PM 42.3617 -74.6739 58° Northeast 519 597 33,000  Level Boston Center
02:15PM 42.4381 -74.4994 59° Northeast 526 605 33,000  Level Boston Center
02:16PM 42.5161 -74.3303 58° Northeast 526 605 33,000  Level Boston Center
02:17PM 42.5792 -74.1517 64° Northeast 520 598 33,000  Level Boston Center
02:18PM 42.6319 -73.9725 68° East 515 593 33,000  Level Boston Center
02:19PM 42.6906 -73.7903 66° East 515 593 33,000  Level Boston Center
02:20PM 42.7467 -73.6078 67° East 515 593 33,000  Level Boston Center
02:21PM 42.8025 -73.4278 67° East 515 593 33,000  Level Boston Center
02:22PM 42.8561 -73.2472 68° East 515 593 33,000  Level Boston Center
02:23PM 42.9133 -73.0667 67° East 515 593 33,000  Level Boston Center
02:24PM 42.9558 -72.9053 70° East 510 587 33,000  Level Boston Center
02:25PM 43.0106 -72.7211 68° East 510 587 33,000 -300 Level Boston Center
02:26PM 43.0756 -72.5367 64° Northeast 518 596 32,500 -2,040 Descending Boston Center
02:27PM 43.1214 -72.3633 70° East 511 588 29,000 -3,480 Descending Boston Center
02:28PM 43.1733 -72.1753 69° East 511 588 25,600 -3,060 Descending Boston Center
02:29PM 43.2247 -71.9900 69° East 516 594 22,900 -2,700 Descending Boston Center
02:30PM 43.2761 -71.8100 69° East 506 582 20,300 -2,760 Descending Boston Center
02:31PM 43.3269 -71.6267 69° East 478 550 17,400 -2,640 Descending Boston Center
02:32PM 43.3736 -71.4661 68° East 465 535 15,100 -2,400 Descending Boston Center
02:33PM 43.4181 -71.3111 68° East 443 510 12,600 -2,040 Descending Boston Center
02:34PM 43.4522 -71.1817 70° East 417 480 11,100 -840 Descending Boston Center
02:35PM 43.4922 -71.0319 70° East 382 440 11,000 -300 Descending Boston Center
02:36PM 43.5178 -70.9169 73° East 369 425 10,600 -780 Descending Boston Center
02:37PM 43.5472 -70.7844 73° East 334 384 9,500 -1,260 Descending Boston Center
02:38PM 43.5725 -70.6747 72° East 313 360 8,100 -1,320 Descending Boston Center
02:39PM 43.5728 -70.5631 90° East 289 333 6,900 -1,200 Descending Boston Center
02:40PM 43.5669 -70.4572 94° East 277 319 5,700 -1,380 Descending Boston Center
02:41PM 43.5631 -70.3542 93° East 272 313 4,200 -1,380 Descending Boston Center
02:42PM 43.5569 -70.2542 95° East 272 313 3,000 -600 Descending Boston Center
02:43PM 43.5556 -70.1739 91° East 241 277 3,000 -300 Level Boston Center
02:44PM 43.6089 -70.1433 23° Northeast 182 209 2,400 -660 Descending Boston Center
02:45PM 43.6472 -70.1792 326° Northwest 164 189 1,700 -720 Descending Boston Center